Time;durP1;ratioP1;P1;durP2;ratioP2;P2;SDS_P1;SDS_P2;PMS_P1;PMS_P2;Temp;Humidity;BMP_temperature;BMP_pressure;BME280_temperature;BME280_humidity;BME280_pressure;Samples;Min_cycle;Max_cycle;Signal;HPM_P1;HPM_P2
2022/09/14 00:01:24;;;;;;;0.00;0.00;;;17.50;99.90;;;;;;4972858;28;20240;-75
2022/09/14 00:03:56;;;;;;;0.00;0.00;;;17.50;99.90;;;;;;4972887;28;20235;-74
2022/09/14 00:06:24;;;;;;;0.00;0.00;;;17.50;99.90;;;;;;4972564;28;20229;-73
2022/09/14 00:08:54;;;;;;;0.00;0.00;;;17.40;99.90;;;;;;4970794;28;20255;-72
2022/09/14 00:11:24;;;;;;;0.00;0.00;;;17.40;99.90;;;;;;4987708;28;20197;-73
2022/09/14 00:13:53;;;;;;;0.00;0.00;;;17.40;99.90;;;;;;4966256;28;20209;-73
2022/09/14 00:16:26;;;;;;;0.00;0.00;;;17.40;99.90;;;;;;4953529;29;20258;-73
2022/09/14 00:18:56;;;;;;;0.00;0.00;;;17.30;99.90;;;;;;4965000;28;20704;-72
2022/09/14 00:21:24;;;;;;;0.00;0.00;;;17.30;99.90;;;;;;4964911;28;20213;-73
2022/09/14 00:23:54;;;;;;;0.00;0.00;;;17.30;99.90;;;;;;4956595;28;20197;-73
2022/09/14 00:26:23;;;;;;;0.00;0.00;;;17.30;99.90;;;;;;4972351;28;20221;-73
2022/09/14 00:28:53;;;;;;;0.00;0.00;;;17.30;99.90;;;;;;4961188;28;20229;-73
2022/09/14 00:31:21;;;;;;;0.00;0.00;;;17.30;99.90;;;;;;4968312;28;20197;-73
2022/09/14 00:33:50;;;;;;;0.00;0.00;;;17.40;99.90;;;;;;4972833;28;20228;-73
2022/09/14 00:36:21;;;;;;;0.00;0.00;;;17.30;99.90;;;;;;4972537;28;20754;-75
2022/09/14 00:38:49;;;;;;;0.00;0.00;;;17.30;99.90;;;;;;4989787;23;20236;-75
2022/09/14 00:41:20;;;;;;;0.00;0.00;;;17.30;99.90;;;;;;5014747;28;20204;-75
2022/09/14 00:43:56;;;;;;;0.00;0.00;;;17.10;99.90;;;;;;5008103;28;20224;-74
2022/09/14 00:46:25;;;;;;;0.00;0.00;;;17.10;99.90;;;;;;5010618;28;20230;-74
2022/09/14 00:48:54;;;;;;;0.00;0.00;;;17.00;99.90;;;;;;5010382;28;20261;-74
2022/09/14 00:51:22;;;;;;;0.00;0.00;;;16.90;99.90;;;;;;4994313;28;20623;-75
2022/09/14 00:53:50;;;;;;;0.00;0.00;;;16.90;99.90;;;;;;4994519;28;20200;-75
2022/09/14 00:56:19;;;;;;;0.00;0.00;;;17.00;99.90;;;;;;4994727;28;20220;-75
2022/09/14 00:58:50;;;;;;;0.00;0.00;;;16.90;99.90;;;;;;4987369;28;20247;-75
2022/09/14 01:01:19;;;;;;;0.00;0.00;;;16.90;99.90;;;;;;4994113;28;20251;-75
2022/09/14 01:03:47;;;;;;;0.00;0.00;;;16.90;99.90;;;;;;4986126;28;20636;-77
2022/09/14 01:06:22;;;;;;;0.00;0.00;;;16.80;99.90;;;;;;4988731;28;20209;-78
2022/09/14 01:09:14;;;;;;;0.00;0.00;;;16.80;99.90;;;;;;4990489;28;20219;-76
2022/09/14 01:11:55;;;;;;;0.00;0.00;;;16.90;99.90;;;;;;4986288;28;20224;-76
2022/09/14 01:14:30;;;;;;;0.00;0.00;;;16.80;99.90;;;;;;4987256;28;20579;-76
2022/09/14 01:17:05;;;;;;;0.00;0.00;;;16.80;99.90;;;;;;4981966;28;20204;-75
2022/09/14 01:19:46;;;;;;;0.00;0.00;;;16.80;99.90;;;;;;4990449;28;20890;-75
2022/09/14 01:22:18;;;;;;;0.00;0.00;;;16.90;99.90;;;;;;4990512;28;20224;-75
2022/09/14 01:24:49;;;;;;;0.00;0.00;;;16.90;99.90;;;;;;4989085;28;20193;-75
2022/09/14 01:27:26;;;;;;;0.00;0.00;;;16.90;99.90;;;;;;4988177;28;20671;-74
2022/09/14 01:30:03;;;;;;;0.00;0.00;;;16.90;99.90;;;;;;4985144;28;20266;-75
2022/09/14 01:32:36;;;;;;;0.00;0.00;;;17.00;99.90;;;;;;4975117;28;20224;-76
2022/09/14 01:35:11;;;;;;;0.00;0.00;;;17.00;99.90;;;;;;4974321;28;20239;-75
2022/09/14 01:37:47;;;;;;;0.00;0.00;;;17.00;99.90;;;;;;4983428;28;20197;-75
2022/09/14 01:40:19;;;;;;;0.00;0.00;;;17.00;99.90;;;;;;4987999;28;20280;-75
2022/09/14 01:42:53;;;;;;;0.00;0.00;;;17.00;99.90;;;;;;4985478;28;20262;-76
2022/09/14 01:45:23;;;;;;;0.00;0.00;;;17.00;99.90;;;;;;4982901;28;20200;-76
2022/09/14 01:47:55;;;;;;;0.00;0.00;;;17.00;99.90;;;;;;4986018;28;20224;-75
2022/09/14 01:50:30;;;;;;;0.00;0.00;;;17.00;99.90;;;;;;4992957;28;20228;-76
2022/09/14 01:53:04;;;;;;;0.00;0.00;;;17.00;99.90;;;;;;4994080;28;20698;-75
2022/09/14 01:55:36;;;;;;;0.10;0.10;;;17.10;99.90;;;;;;4993988;28;20227;-76
2022/09/14 01:58:10;;;;;;;0.00;0.00;;;17.00;99.90;;;;;;4984393;28;20196;-76
2022/09/14 02:00:40;;;;;;;0.00;0.00;;;17.10;99.90;;;;;;4993838;28;20219;-75
2022/09/14 02:03:13;;;;;;;0.00;0.00;;;17.10;99.90;;;;;;4994546;28;20212;-75
2022/09/14 02:05:48;;;;;;;0.00;0.00;;;17.00;99.90;;;;;;5004078;28;20231;-75
2022/09/14 02:08:16;;;;;;;0.00;0.00;;;17.00;99.90;;;;;;5002863;28;20243;-75
2022/09/14 02:10:43;;;;;;;0.00;0.00;;;17.00;99.90;;;;;;5000410;28;20232;-76
2022/09/14 02:13:13;;;;;;;0.00;0.00;;;17.00;99.90;;;;;;4980400;28;20250;-75
2022/09/14 02:15:40;;;;;;;0.00;0.00;;;17.00;99.90;;;;;;4993822;28;20204;-75
2022/09/14 02:18:08;;;;;;;0.00;0.00;;;16.90;99.90;;;;;;4981431;28;20192;-76
2022/09/14 02:20:42;;;;;;;0.00;0.00;;;16.90;99.90;;;;;;4987538;28;20644;-76
2022/09/14 02:23:10;;;;;;;0.00;0.00;;;16.90;99.90;;;;;;4993279;28;20201;-76
2022/09/14 02:25:39;;;;;;;0.00;0.00;;;16.90;99.90;;;;;;4993326;28;20255;-77
2022/09/14 02:28:07;;;;;;;0.00;0.00;;;16.80;99.90;;;;;;4977943;28;20230;-77
2022/09/14 02:30:45;;;;;;;0.00;0.00;;;16.80;99.90;;;;;;4991397;28;20244;-77
2022/09/14 02:33:19;;;;;;;0.00;0.00;;;16.80;99.90;;;;;;4992973;28;20670;-77
2022/09/14 02:35:51;;;;;;;0.00;0.00;;;16.80;99.90;;;;;;4992380;28;20579;-76
2022/09/14 02:38:26;;;;;;;0.00;0.00;;;16.80;99.90;;;;;;4975778;28;20200;-76
2022/09/14 02:40:58;;;;;;;0.00;0.00;;;16.80;99.90;;;;;;4991851;28;20725;-76
2022/09/14 02:43:37;;;;;;;0.00;0.00;;;16.80;99.90;;;;;;4992192;28;20239;-76
2022/09/14 02:46:14;;;;;;;0.00;0.00;;;16.80;99.90;;;;;;4983166;28;20605;-76
2022/09/14 02:48:48;;;;;;;0.00;0.00;;;16.80;99.90;;;;;;4997023;28;20227;-76
2022/09/14 02:51:25;;;;;;;0.00;0.00;;;16.80;99.90;;;;;;4993245;28;20279;-77
2022/09/14 02:53:58;;;;;;;0.00;0.00;;;16.90;99.90;;;;;;4993050;28;20193;-76
2022/09/14 02:56:28;;;;;;;0.00;0.00;;;16.90;99.90;;;;;;4992880;28;20197;-76
2022/09/14 02:58:56;;;;;;;0.00;0.00;;;16.90;99.90;;;;;;4991803;28;20247;-76
2022/09/14 03:01:26;;;;;;;0.00;0.00;;;17.00;99.90;;;;;;4992397;28;20243;-76
2022/09/14 03:03:54;;;;;;;0.00;0.00;;;17.00;99.90;;;;;;4992905;28;20211;-76
2022/09/14 03:06:22;;;;;;;0.00;0.00;;;17.00;99.90;;;;;;4992792;28;20200;-76
2022/09/14 03:08:50;;;;;;;0.00;0.00;;;17.00;99.90;;;;;;4981526;28;20252;-77
2022/09/14 03:11:18;;;;;;;0.00;0.00;;;16.90;99.90;;;;;;4991841;28;20200;-76
2022/09/14 03:13:46;;;;;;;0.00;0.00;;;16.90;99.90;;;;;;4991317;28;20212;-76
2022/09/14 03:16:15;;;;;;;0.00;0.00;;;16.90;99.90;;;;;;4992490;28;20255;-76
2022/09/14 03:18:45;;;;;;;0.00;0.00;;;16.90;99.90;;;;;;4978015;28;20221;-76
2022/09/14 03:21:15;;;;;;;0.00;0.00;;;16.90;99.90;;;;;;4982032;28;20207;-76
2022/09/14 03:23:46;;;;;;;0.00;0.00;;;16.90;99.90;;;;;;4991783;28;20244;-76
2022/09/14 03:26:16;;;;;;;0.00;0.00;;;16.90;99.90;;;;;;4992339;28;20208;-76
2022/09/14 03:28:45;;;;;;;0.00;0.00;;;16.90;99.90;;;;;;4976875;28;20256;-76
2022/09/14 03:31:13;;;;;;;0.00;0.00;;;16.90;99.90;;;;;;4982524;28;20207;-76
2022/09/14 03:33:41;;;;;;;0.00;0.00;;;16.80;99.90;;;;;;4992137;28;20208;-75
2022/09/14 03:36:15;;;;;;;0.00;0.00;;;16.80;99.90;;;;;;4992355;28;20231;-75
2022/09/14 03:38:44;;;;;;;0.00;0.00;;;16.80;99.90;;;;;;4991768;28;20215;-75
2022/09/14 03:41:13;;;;;;;0.00;0.00;;;16.80;99.90;;;;;;4991418;28;20230;-75
2022/09/14 03:43:41;;;;;;;0.00;0.00;;;16.80;99.90;;;;;;4991809;28;20231;-76
2022/09/14 03:46:11;;;;;;;0.00;0.00;;;16.80;99.90;;;;;;4992235;28;20238;-76
2022/09/14 03:48:39;;;;;;;0.00;0.00;;;16.80;99.90;;;;;;4983650;28;20228;-76
2022/09/14 03:51:09;;;;;;;0.00;0.00;;;16.80;99.90;;;;;;4991660;28;20231;-76
2022/09/14 03:53:38;;;;;;;0.00;0.00;;;16.80;99.90;;;;;;4991636;28;20239;-76
2022/09/14 03:56:07;;;;;;;0.00;0.00;;;16.80;99.90;;;;;;4992233;28;20729;-76
2022/09/14 03:58:36;;;;;;;0.00;0.00;;;16.80;99.90;;;;;;4984417;28;20200;-76
2022/09/14 04:01:05;;;;;;;0.00;0.00;;;16.80;99.90;;;;;;4981835;28;20621;-77
2022/09/14 04:03:33;;;;;;;0.00;0.00;;;16.80;99.90;;;;;;4991991;28;20208;-77
2022/09/14 04:06:04;;;;;;;0.00;0.00;;;16.80;99.90;;;;;;4984288;28;20231;-77
2022/09/14 04:08:32;;;;;;;0.00;0.00;;;16.80;99.90;;;;;;4993807;28;20290;-76
2022/09/14 04:11:08;;;;;;;0.00;0.00;;;16.80;99.90;;;;;;4987104;28;20280;-76
2022/09/14 04:13:36;;;;;;;0.00;0.00;;;16.90;99.90;;;;;;4989347;28;20271;-76
2022/09/14 04:16:04;;;;;;;0.00;0.00;;;16.90;99.90;;;;;;4990595;28;20260;-76
2022/09/14 04:18:35;;;;;;;0.00;0.00;;;16.80;99.90;;;;;;4989129;28;20228;-76
2022/09/14 04:21:05;;;;;;;0.00;0.00;;;16.70;99.90;;;;;;5004861;28;20205;-75
2022/09/14 04:23:35;;;;;;;0.00;0.00;;;16.60;99.90;;;;;;4995457;28;20569;-76
2022/09/14 04:26:26;;;;;;;0.00;0.00;;;16.60;99.90;;;;;;4997789;28;20216;-77
2022/09/14 04:28:55;;;;;;;0.00;0.00;;;16.60;99.90;;;;;;4993916;28;20228;-76
2022/09/14 04:31:23;;;;;;;0.00;0.00;;;16.50;99.90;;;;;;4986170;28;20209;-77
2022/09/14 04:33:52;;;;;;;0.00;0.00;;;16.50;99.90;;;;;;4995237;28;20213;-78
2022/09/14 04:36:24;;;;;;;0.00;0.00;;;16.50;99.90;;;;;;4977334;28;20250;-77
2022/09/14 04:38:53;;;;;;;0.00;0.00;;;16.40;99.90;;;;;;4994161;28;20291;-77
2022/09/14 04:41:22;;;;;;;0.00;0.00;;;16.50;99.90;;;;;;4978024;28;20614;-77
2022/09/14 04:43:52;;;;;;;0.00;0.00;;;16.40;99.90;;;;;;4995686;28;20247;-77
2022/09/14 04:46:22;;;;;;;0.00;0.00;;;16.40;99.90;;;;;;4995321;28;20216;-77
2022/09/14 04:48:51;;;;;;;0.00;0.00;;;16.40;99.90;;;;;;4981471;28;20223;-76
2022/09/14 04:51:20;;;;;;;0.00;0.00;;;16.40;99.90;;;;;;4992335;28;20367;-76
2022/09/14 04:53:50;;;;;;;0.00;0.00;;;16.40;99.90;;;;;;4994197;28;20684;-77
2022/09/14 04:56:20;;;;;;;0.00;0.00;;;16.40;99.90;;;;;;4978811;28;20205;-77
2022/09/14 04:58:50;;;;;;;0.00;0.00;;;16.40;99.90;;;;;;4973916;28;20240;-76
2022/09/14 05:01:22;;;;;;;0.00;0.00;;;16.40;99.90;;;;;;4975959;28;20197;-77
2022/09/14 05:03:51;;;;;;;0.00;0.00;;;16.50;99.90;;;;;;4976659;28;20197;-77
2022/09/14 05:06:21;;;;;;;0.00;0.00;;;16.50;99.90;;;;;;4995696;28;20715;-77
2022/09/14 05:08:50;;;;;;;0.00;0.00;;;16.50;99.90;;;;;;4980830;28;20217;-77
2022/09/14 05:11:20;;;;;;;0.00;0.00;;;16.50;99.90;;;;;;4977142;28;20229;-77
2022/09/14 05:13:48;;;;;;;0.00;0.00;;;16.60;99.90;;;;;;5002894;28;20208;-77
2022/09/14 05:16:21;;;;;;;0.00;0.00;;;16.60;99.90;;;;;;4978926;28;20207;-77
2022/09/14 05:18:49;;;;;;;0.00;0.00;;;16.50;99.90;;;;;;4988146;28;20601;-77
2022/09/14 05:21:20;;;;;;;0.00;0.00;;;16.50;99.90;;;;;;4975450;28;20205;-77
2022/09/14 05:23:48;;;;;;;0.00;0.00;;;16.50;99.90;;;;;;4977641;28;20198;-77
2022/09/14 05:26:15;;;;;;;0.00;0.00;;;16.50;99.90;;;;;;5002008;28;20231;-77
2022/09/14 05:28:43;;;;;;;0.00;0.00;;;16.50;99.90;;;;;;4988409;28;20260;-79
2022/09/14 05:31:12;;;;;;;0.00;0.00;;;16.60;99.90;;;;;;4980750;28;20224;-77
2022/09/14 05:33:44;;;;;;;0.00;0.00;;;16.60;99.90;;;;;;4993349;28;20204;-76
2022/09/14 05:36:12;;;;;;;0.00;0.00;;;16.70;99.90;;;;;;4983442;28;20201;-77
2022/09/14 05:38:40;;;;;;;0.00;0.00;;;16.70;99.90;;;;;;4978073;28;20267;-76
2022/09/14 05:41:11;;;;;;;0.00;0.00;;;16.70;99.90;;;;;;4994354;28;20310;-76
2022/09/14 05:43:39;;;;;;;0.00;0.00;;;16.70;99.90;;;;;;4994395;28;20228;-76
2022/09/14 05:46:09;;;;;;;0.00;0.00;;;16.70;99.90;;;;;;4994109;28;20196;-76
2022/09/14 05:48:38;;;;;;;0.00;0.00;;;16.70;99.90;;;;;;4982153;28;20221;-76
2022/09/14 05:51:11;;;;;;;0.00;0.00;;;16.70;99.90;;;;;;4994341;28;20567;-76
2022/09/14 05:53:39;;;;;;;0.00;0.00;;;16.80;99.90;;;;;;4995379;28;20191;-76
2022/09/14 05:56:08;;;;;;;0.00;0.00;;;16.80;99.90;;;;;;4994612;28;20201;-76
2022/09/14 05:58:38;;;;;;;0.00;0.00;;;16.80;99.90;;;;;;4993692;28;20660;-76
2022/09/14 06:01:08;;;;;;;0.10;0.10;;;16.80;99.90;;;;;;4993951;28;20250;-76
2022/09/14 06:03:36;;;;;;;0.00;0.00;;;16.90;99.90;;;;;;4993700;28;20231;-76
2022/09/14 06:06:06;;;;;;;0.00;0.00;;;16.90;99.90;;;;;;4993814;28;20197;-76
2022/09/14 06:08:35;;;;;;;0.00;0.00;;;16.90;99.90;;;;;;4991466;28;20224;-76
2022/09/14 06:11:04;;;;;;;0.00;0.00;;;16.90;99.90;;;;;;4993679;28;20251;-76
2022/09/14 06:13:32;;;;;;;0.00;0.00;;;17.00;99.90;;;;;;4993270;28;20200;-76
2022/09/14 06:16:04;;;;;;;0.00;0.00;;;17.00;99.90;;;;;;4993463;28;20274;-76
2022/09/14 06:18:33;;;;;;;0.00;0.00;;;17.10;99.90;;;;;;4992958;28;20597;-76
2022/09/14 06:21:01;;;;;;;0.00;0.00;;;17.10;99.90;;;;;;4993282;28;20224;-76
2022/09/14 06:23:30;;;;;;;0.00;0.00;;;17.10;99.90;;;;;;4993433;28;20205;-76
2022/09/14 06:26:02;;;;;;;0.00;0.00;;;17.10;99.90;;;;;;4993531;28;20204;-76
2022/09/14 06:28:30;;;;;;;0.00;0.00;;;17.10;99.90;;;;;;4992850;28;20251;-76
2022/09/14 06:30:58;;;;;;;0.00;0.00;;;17.10;99.90;;;;;;4993326;28;20709;-76
2022/09/14 06:33:26;;;;;;;0.00;0.00;;;17.20;99.90;;;;;;4992927;28;20246;-76
2022/09/14 06:35:55;;;;;;;0.00;0.00;;;17.10;99.90;;;;;;4993081;28;20216;-76
2022/09/14 06:38:23;;;;;;;0.00;0.00;;;17.10;99.90;;;;;;4992120;28;20258;-77
2022/09/14 06:40:52;;;;;;;0.00;0.00;;;17.10;99.90;;;;;;4992979;28;20750;-77
2022/09/14 06:43:22;;;;;;;0.00;0.00;;;17.10;99.90;;;;;;4993036;28;20250;-76
2022/09/14 06:45:57;;;;;;;0.00;0.00;;;17.00;99.90;;;;;;4993070;28;20251;-76
2022/09/14 06:48:25;;;;;;;0.00;0.00;;;17.00;99.90;;;;;;4992430;28;20204;-76
2022/09/14 06:50:53;;;;;;;0.00;0.00;;;16.90;99.90;;;;;;4975308;28;20263;-76
2022/09/14 06:53:21;;;;;;;0.00;0.00;;;16.90;99.90;;;;;;4992865;28;20258;-76
2022/09/14 06:55:49;;;;;;;0.00;0.00;;;16.80;99.90;;;;;;4993126;28;20227;-76
2022/09/14 06:58:17;;;;;;;0.00;0.00;;;16.80;99.90;;;;;;4992482;28;20283;-77
2022/09/14 07:00:46;;;;;;;0.00;0.00;;;16.90;99.90;;;;;;4992809;28;20192;-76
2022/09/14 07:03:14;;;;;;;0.00;0.00;;;16.90;99.90;;;;;;4992249;28;20196;-76
2022/09/14 07:05:42;;;;;;;0.00;0.00;;;16.90;99.90;;;;;;4992842;28;20227;-77
2022/09/14 07:08:10;;;;;;;0.00;0.00;;;16.80;99.90;;;;;;4991986;28;20200;-76
2022/09/14 07:10:39;;;;;;;0.00;0.00;;;16.80;99.90;;;;;;4992870;28;20327;-77
2022/09/14 07:13:06;;;;;;;0.00;0.00;;;16.80;99.90;;;;;;5010246;23;20302;-75
2022/09/14 07:15:34;;;;;;;0.00;0.00;;;16.80;99.90;;;;;;4982763;28;20662;-75
2022/09/14 07:18:03;;;;;;;0.00;0.00;;;16.80;99.90;;;;;;5012942;28;20235;-75
2022/09/14 07:20:33;;;;;;;0.00;0.00;;;16.80;99.90;;;;;;5015332;28;20202;-75
2022/09/14 07:23:01;;;;;;;0.00;0.00;;;16.80;99.90;;;;;;5025607;28;20254;-74
2022/09/14 07:25:29;;;;;;;0.00;0.00;;;16.80;99.90;;;;;;5028346;28;20204;-74
2022/09/14 07:27:57;;;;;;;0.00;0.00;;;16.80;99.90;;;;;;5022717;28;20210;-75
2022/09/14 07:30:26;;;;;;;0.00;0.00;;;16.80;99.90;;;;;;5023427;28;20278;-75
2022/09/14 07:32:54;;;;;;;0.00;0.00;;;16.80;99.90;;;;;;5016130;28;20211;-75
2022/09/14 07:35:24;;;;;;;0.00;0.00;;;16.80;99.90;;;;;;5015796;28;20670;-74
2022/09/14 07:37:51;;;;;;;0.00;0.00;;;16.80;99.90;;;;;;5017234;28;20219;-75
2022/09/14 07:40:21;;;;;;;0.00;0.00;;;16.80;99.90;;;;;;5017611;28;20628;-75
2022/09/14 07:42:50;;;;;;;0.00;0.00;;;16.80;99.90;;;;;;5022504;28;20277;-74
2022/09/14 07:45:24;;;;;;;0.00;0.00;;;16.90;99.90;;;;;;5024005;28;20206;-74
2022/09/14 07:47:52;;;;;;;0.00;0.00;;;16.90;99.90;;;;;;5025313;28;20195;-74
2022/09/14 07:50:19;;;;;;;0.00;0.00;;;16.90;99.90;;;;;;5025145;28;20239;-76
2022/09/14 07:52:51;;;;;;;0.00;0.00;;;17.00;99.90;;;;;;5015784;28;20223;-75
2022/09/14 07:55:18;;;;;;;0.00;0.00;;;17.00;99.90;;;;;;5011451;28;20188;-75
2022/09/14 07:57:46;;;;;;;0.00;0.00;;;17.00;99.90;;;;;;5011322;28;20663;-75
2022/09/14 08:00:24;;;;;;;0.00;0.00;;;17.00;99.90;;;;;;4994050;28;20202;-75
2022/09/14 08:02:53;;;;;;;0.00;0.00;;;17.10;99.90;;;;;;5011695;28;20230;-75
2022/09/14 08:05:22;;;;;;;0.00;0.00;;;17.10;99.90;;;;;;5011618;28;20687;-75
2022/09/14 08:07:54;;;;;;;0.00;0.00;;;17.10;99.90;;;;;;5005009;28;20212;-75
2022/09/14 08:10:24;;;;;;;0.00;0.00;;;17.10;99.90;;;;;;4999991;28;20263;-75
2022/09/14 08:12:53;;;;;;;0.00;0.00;;;17.10;99.90;;;;;;5004327;28;20842;-76
2022/09/14 08:15:21;;;;;;;0.00;0.00;;;17.00;99.90;;;;;;4984003;28;20298;-76
2022/09/14 08:17:55;;;;;;;0.00;0.00;;;17.10;99.90;;;;;;5011299;28;20558;-75
2022/09/14 08:20:23;;;;;;;0.00;0.00;;;17.10;99.90;;;;;;5011404;28;20291;-75
2022/09/14 08:22:50;;;;;;;0.00;0.00;;;17.10;99.90;;;;;;4984107;28;20655;-75
2022/09/14 08:25:19;;;;;;;0.00;0.00;;;17.10;99.90;;;;;;5004527;28;20211;-75
2022/09/14 08:27:47;;;;;;;0.00;0.00;;;17.10;99.90;;;;;;5011218;28;20303;-75
2022/09/14 08:30:15;;;;;;;0.00;0.00;;;17.10;99.90;;;;;;5011381;28;20326;-75
2022/09/14 08:32:43;;;;;;;0.00;0.00;;;17.00;99.90;;;;;;5011373;28;20319;-75
2022/09/14 08:35:10;;;;;;;0.00;0.00;;;17.00;99.90;;;;;;5011454;28;20208;-75
2022/09/14 08:37:38;;;;;;;0.00;0.00;;;17.10;99.90;;;;;;5010967;28;20199;-75
2022/09/14 08:40:08;;;;;;;0.00;0.00;;;17.20;99.90;;;;;;5011154;28;20743;-75
2022/09/14 08:42:39;;;;;;;0.00;0.00;;;17.30;99.90;;;;;;5010956;28;20219;-75
2022/09/14 08:45:11;;;;;;;0.00;0.00;;;17.30;99.90;;;;;;5011169;28;20204;-75
2022/09/14 08:47:40;;;;;;;0.00;0.00;;;17.40;99.90;;;;;;5011000;28;20200;-75
2022/09/14 08:50:13;;;;;;;0.00;0.00;;;17.40;99.90;;;;;;5011271;28;20674;-75
2022/09/14 08:52:44;;;;;;;0.00;0.00;;;17.40;99.90;;;;;;5011297;28;20326;-76
2022/09/14 08:55:20;;;;;;;0.00;0.00;;;17.40;99.90;;;;;;4997540;28;20256;-75
2022/09/14 08:57:59;;;;;;;0.00;0.00;;;17.40;99.90;;;;;;4993349;28;20688;-75
2022/09/14 09:00:36;;;;;;;0.00;0.00;;;17.40;99.90;;;;;;5012098;28;20234;-75
2022/09/14 09:03:31;;;;;;;0.00;0.00;;;17.50;99.90;;;;;;5014525;28;20231;-75
2022/09/14 09:06:07;;;;;;;0.00;0.00;;;17.50;99.90;;;;;;5014807;28;20200;-75
2022/09/14 09:08:54;;;;;;;0.00;0.00;;;17.50;99.90;;;;;;5014371;28;20207;-75
2022/09/14 09:11:26;;;;;;;0.00;0.00;;;17.60;99.90;;;;;;5014248;28;20250;-75
2022/09/14 09:13:56;;;;;;;0.00;0.00;;;17.60;99.90;;;;;;5014670;28;20238;-75
2022/09/14 09:16:27;;;;;;;0.00;0.00;;;17.60;99.90;;;;;;5014449;28;20298;-75
2022/09/14 09:18:59;;;;;;;0.00;0.00;;;17.70;99.90;;;;;;5015654;28;20227;-76
2022/09/14 09:21:31;;;;;;;0.00;0.00;;;17.70;99.90;;;;;;5016187;28;20761;-76
2022/09/14 09:24:16;;;;;;;0.00;0.00;;;17.80;99.90;;;;;;5016574;28;20239;-75
2022/09/14 09:26:43;;;;;;;0.00;0.00;;;17.80;99.90;;;;;;5014302;28;20203;-75
2022/09/14 09:29:13;;;;;;;0.00;0.00;;;17.80;99.90;;;;;;5014290;28;20322;-75
2022/09/14 09:31:59;;;;;;;0.00;0.00;;;17.80;99.90;;;;;;5014258;28;20613;-75
2022/09/14 09:34:46;;;;;;;0.00;0.00;;;17.80;99.90;;;;;;5010595;28;20219;-76
2022/09/14 09:37:40;;;;;;;0.00;0.00;;;17.90;99.90;;;;;;4999696;28;20219;-76
2022/09/14 09:40:15;;;;;;;0.00;0.00;;;17.90;99.90;;;;;;5014089;28;20253;-75
2022/09/14 09:43:09;;;;;;;0.00;0.00;;;17.90;99.90;;;;;;4996307;28;20678;-77
2022/09/14 09:46:00;;;;;;;0.00;0.00;;;18.00;99.90;;;;;;5014395;28;20546;-75
2022/09/14 09:48:32;;;;;;;0.00;0.00;;;18.10;99.90;;;;;;5013436;28;20231;-76
2022/09/14 09:51:04;;;;;;;0.00;0.00;;;18.10;99.90;;;;;;5013813;28;20243;-74
2022/09/14 09:53:35;;;;;;;0.00;0.00;;;18.20;99.90;;;;;;5012702;28;20242;-76
2022/09/14 09:56:04;;;;;;;0.00;0.00;;;18.10;99.90;;;;;;5013690;28;20215;-74
2022/09/14 09:58:35;;;;;;;0.00;0.00;;;18.00;99.90;;;;;;5013326;28;20188;-74
2022/09/14 10:01:07;;;;;;;0.00;0.00;;;18.00;99.90;;;;;;5013334;28;20275;-74
2022/09/14 10:03:40;;;;;;;0.00;0.00;;;18.00;99.90;;;;;;5013693;28;20601;-74
2022/09/14 10:06:13;;;;;;;0.00;0.00;;;18.10;99.90;;;;;;5013529;28;20242;-74
2022/09/14 10:08:43;;;;;;;0.00;0.00;;;18.10;99.90;;;;;;5013117;28;20195;-75
2022/09/14 10:11:35;;;;;;;0.00;0.00;;;18.10;99.90;;;;;;5014048;28;20282;-74
2022/09/14 10:14:03;;;;;;;0.00;0.00;;;18.10;99.90;;;;;;5013340;28;20234;-74
2022/09/14 10:16:37;;;;;;;0.00;0.00;;;18.10;99.90;;;;;;5013108;28;20191;-74
2022/09/14 10:19:13;;;;;;;0.00;0.00;;;18.00;99.90;;;;;;5003531;28;20204;-74
2022/09/14 10:22:05;;;;;;;0.00;0.00;;;18.10;99.90;;;;;;4997572;28;20205;-74
2022/09/14 10:24:35;;;;;;;0.00;0.00;;;18.10;99.90;;;;;;5013541;28;20254;-74
2022/09/14 10:27:34;;;;;;;0.00;0.00;;;18.10;99.90;;;;;;5013275;28;20729;-74
2022/09/14 10:30:06;;;;;;;0.00;0.00;;;18.00;99.90;;;;;;5013423;28;20207;-75
2022/09/14 10:32:37;;;;;;;0.10;0.10;;;18.00;99.90;;;;;;5012959;28;20232;-74
2022/09/14 10:35:12;;;;;;;0.00;0.00;;;18.00;99.90;;;;;;4995929;28;20257;-74
2022/09/14 10:37:49;;;;;;;0.00;0.00;;;18.00;99.90;;;;;;5012750;28;20258;-74
2022/09/14 10:40:24;;;;;;;0.00;0.00;;;18.00;99.90;;;;;;5013724;28;20226;-74
2022/09/14 10:43:07;;;;;;;0.00;0.00;;;18.00;99.90;;;;;;5012188;28;20239;-74
2022/09/14 10:45:38;;;;;;;0.00;0.00;;;18.00;99.90;;;;;;5013093;28;20199;-74
2022/09/14 10:48:39;;;;;;;0.10;0.10;;;18.00;99.90;;;;;;5012457;28;20224;-75
2022/09/14 10:51:28;;;;;;;0.00;0.00;;;18.10;99.90;;;;;;4995242;28;20221;-75
2022/09/14 10:54:04;;;;;;;0.00;0.00;;;18.00;99.90;;;;;;4980212;28;20232;-75
2022/09/14 10:56:43;;;;;;;0.00;0.00;;;18.00;99.90;;;;;;5012321;28;20199;-75
2022/09/14 10:59:30;;;;;;;0.00;0.00;;;18.10;99.90;;;;;;5012172;28;20195;-76
2022/09/14 11:02:14;;;;;;;0.00;0.00;;;18.00;99.90;;;;;;5012385;28;20199;-76
2022/09/14 11:05:01;;;;;;;0.00;0.00;;;18.10;99.90;;;;;;4994678;28;20211;-75
2022/09/14 11:07:36;;;;;;;0.00;0.00;;;18.00;99.90;;;;;;5011878;28;20195;-75
2022/09/14 11:10:16;;;;;;;0.00;0.00;;;18.00;99.90;;;;;;4994806;28;20210;-75
2022/09/14 11:12:51;;;;;;;0.00;0.00;;;18.00;99.90;;;;;;5011915;28;20320;-75
2022/09/14 11:15:25;;;;;;;0.00;0.00;;;18.00;99.90;;;;;;5012790;28;20191;-76
2022/09/14 11:18:09;;;;;;;0.00;0.00;;;18.00;99.90;;;;;;5011998;28;20199;-76
2022/09/14 11:20:48;;;;;;;0.00;0.00;;;18.00;99.90;;;;;;5012233;28;20195;-75
2022/09/14 11:23:27;;;;;;;0.00;0.00;;;18.10;99.90;;;;;;5011628;28;20269;-75
2022/09/14 11:25:59;;;;;;;0.00;0.00;;;18.20;99.90;;;;;;5012200;28;20203;-76
2022/09/14 11:28:30;;;;;;;0.00;0.00;;;18.10;99.90;;;;;;5009041;28;20247;-77
2022/09/14 11:31:05;;;;;;;0.00;0.00;;;18.10;99.90;;;;;;4995532;28;20200;-76
2022/09/14 11:33:37;;;;;;;0.00;0.00;;;18.10;99.90;;;;;;4993308;28;20222;-74
2022/09/14 11:36:10;;;;;;;0.00;0.00;;;18.20;99.90;;;;;;4992682;28;20707;-76
2022/09/14 11:38:44;;;;;;;0.00;0.00;;;18.20;99.90;;;;;;4991933;28;20200;-76
2022/09/14 11:41:21;;;;;;;0.00;0.00;;;18.20;99.90;;;;;;4992836;28;20254;-76
2022/09/14 11:43:53;;;;;;;0.00;0.00;;;18.20;99.90;;;;;;4992333;28;20282;-76
2022/09/14 11:46:25;;;;;;;0.00;0.00;;;18.30;99.90;;;;;;4991699;28;20567;-76
2022/09/14 11:48:59;;;;;;;0.00;0.00;;;18.40;99.90;;;;;;4984403;28;20201;-75
2022/09/14 11:51:34;;;;;;;0.00;0.00;;;18.40;99.90;;;;;;4993402;28;20214;-76
2022/09/14 11:54:02;;;;;;;0.00;0.00;;;18.50;99.90;;;;;;5011543;28;20281;-75
2022/09/14 11:56:31;;;;;;;0.00;0.00;;;18.50;99.90;;;;;;5011503;28;20196;-75
2022/09/14 11:59:04;;;;;;;0.00;0.00;;;18.60;99.90;;;;;;5011343;28;20226;-75
2022/09/14 12:01:35;;;;;;;0.00;0.00;;;18.60;99.90;;;;;;5011533;28;20203;-76
2022/09/14 12:04:10;;;;;;;0.00;0.00;;;18.60;99.90;;;;;;5011505;28;20219;-76
2022/09/14 12:06:49;;;;;;;0.00;0.00;;;18.60;99.90;;;;;;5011938;28;20670;-76
2022/09/14 12:09:43;;;;;;;0.00;0.00;;;18.60;99.90;;;;;;4993661;28;20273;-76
2022/09/14 12:12:31;;;;;;;0.00;0.00;;;18.70;99.90;;;;;;5011315;28;20298;-77
2022/09/14 12:15:01;;;;;;;0.00;0.00;;;18.70;99.90;;;;;;5011657;28;20200;-76
2022/09/14 12:17:33;;;;;;;0.00;0.00;;;18.80;99.90;;;;;;5010799;28;20204;-76
2022/09/14 12:20:45;;;;;;;0.00;0.00;;;18.80;99.90;;;;;;5004705;28;20662;-76
2022/09/14 12:23:20;;;;;;;0.00;0.00;;;18.90;99.90;;;;;;5013034;28;20211;-76
2022/09/14 12:26:12;;;;;;;0.00;0.00;;;18.90;99.90;;;;;;5011545;28;20207;-76
2022/09/14 12:28:46;;;;;;;0.00;0.00;;;19.00;99.90;;;;;;4996534;28;20255;-77
2022/09/14 12:31:31;;;;;;;0.00;0.00;;;19.10;99.90;;;;;;4990419;28;20726;-75
2022/09/14 12:34:14;;;;;;;0.00;0.00;;;19.20;99.90;;;;;;4989655;28;20243;-74
2022/09/14 12:37:04;;;;;;;0.00;0.00;;;19.30;99.90;;;;;;4990963;28;20197;-73
2022/09/14 12:40:22;;;;;;;0.00;0.00;;;19.30;99.90;;;;;;4991530;28;20207;-73
2022/09/14 12:42:50;;;;;;;0.00;0.00;;;19.40;99.90;;;;;;4995508;28;20223;-74
2022/09/14 12:45:49;;;;;;;0.00;0.00;;;19.40;99.90;;;;;;4994054;28;20197;-74
2022/09/14 12:48:53;;;;;;;0.00;0.00;;;19.40;99.90;;;;;;4987409;28;20205;-75
2022/09/14 12:51:30;;;;;;;0.00;0.00;;;19.40;99.90;;;;;;4988878;28;20200;-74
2022/09/14 12:54:03;;;;;;;0.00;0.00;;;19.40;99.90;;;;;;4998811;28;20703;-74
2022/09/14 12:56:40;;;;;;;0.00;0.00;;;19.30;99.90;;;;;;4995334;28;20682;-77
2022/09/14 12:59:15;;;;;;;0.00;0.00;;;19.30;99.90;;;;;;4968147;28;20197;-77
2022/09/14 13:01:50;;;;;;;0.00;0.00;;;19.30;99.90;;;;;;4975437;28;20247;-77
2022/09/14 13:04:25;;;;;;;0.00;0.00;;;19.30;99.90;;;;;;4981296;28;20295;-74
2022/09/14 13:06:55;;;;;;;0.00;0.00;;;19.30;99.90;;;;;;4993003;28;20208;-76
2022/09/14 13:09:25;;;;;;;0.00;0.00;;;19.60;99.90;;;;;;4977613;28;20209;-74
2022/09/14 13:11:58;;;;;;;0.00;0.00;;;19.70;99.90;;;;;;5013728;28;20212;-76
2022/09/14 13:14:29;;;;;;;0.00;0.00;;;19.80;99.90;;;;;;5007339;28;20192;-75
2022/09/14 13:16:59;;;;;;;0.00;0.00;;;19.90;99.90;;;;;;4993015;28;20271;-75